sensor_id;sensor_type;location;lat;lon;timestamp;P1;durP1;ratioP1;P2;durP2;ratioP2
10987;SDS011;5547;42.672;23.230;2023-12-20T00:03:24;49.23;;;29.33;;
10987;SDS011;5547;42.672;23.230;2023-12-20T00:07:23;46.60;;;27.88;;
10987;SDS011;5547;42.672;23.230;2023-12-20T00:11:22;46.80;;;27.80;;
10987;SDS011;5547;42.672;23.230;2023-12-20T00:15:21;46.55;;;29.05;;
10987;SDS011;5547;42.672;23.230;2023-12-20T00:19:20;44.10;;;26.38;;
10987;SDS011;5547;42.672;23.230;2023-12-20T00:23:19;47.27;;;29.10;;
10987;SDS011;5547;42.672;23.230;2023-12-20T00:27:18;42.70;;;26.08;;
10987;SDS011;5547;42.672;23.230;2023-12-20T00:31:17;45.88;;;28.08;;
10987;SDS011;5547;42.672;23.230;2023-12-20T00:35:16;44.87;;;25.87;;
10987;SDS011;5547;42.672;23.230;2023-12-20T00:39:15;41.80;;;24.58;;
10987;SDS011;5547;42.672;23.230;2023-12-20T00:43:15;37.60;;;23.03;;
10987;SDS011;5547;42.672;23.230;2023-12-20T00:47:14;42.60;;;23.67;;
10987;SDS011;5547;42.672;23.230;2023-12-20T00:51:13;43.93;;;23.20;;
10987;SDS011;5547;42.672;23.230;2023-12-20T00:55:12;41.70;;;22.20;;
10987;SDS011;5547;42.672;23.230;2023-12-20T00:59:11;44.45;;;24.35;;
10987;SDS011;5547;42.672;23.230;2023-12-20T01:03:10;45.30;;;24.75;;
10987;SDS011;5547;42.672;23.230;2023-12-20T01:07:09;38.50;;;23.77;;
10987;SDS011;5547;42.672;23.230;2023-12-20T01:11:08;41.47;;;24.90;;
10987;SDS011;5547;42.672;23.230;2023-12-20T01:15:07;43.95;;;24.25;;
10987;SDS011;5547;42.672;23.230;2023-12-20T01:19:06;43.13;;;25.75;;
10987;SDS011;5547;42.672;23.230;2023-12-20T01:23:06;43.17;;;26.40;;
10987;SDS011;5547;42.672;23.230;2023-12-20T01:27:04;45.03;;;26.75;;
10987;SDS011;5547;42.672;23.230;2023-12-20T01:31:04;39.95;;;24.65;;
10987;SDS011;5547;42.672;23.230;2023-12-20T01:35:03;39.30;;;23.40;;
10987;SDS011;5547;42.672;23.230;2023-12-20T01:39:02;41.67;;;24.10;;
10987;SDS011;5547;42.672;23.230;2023-12-20T01:43:07;40.22;;;24.10;;
10987;SDS011;5547;42.672;23.230;2023-12-20T01:47:06;37.47;;;22.45;;
10987;SDS011;5547;42.672;23.230;2023-12-20T01:51:06;42.53;;;25.90;;
10987;SDS011;5547;42.672;23.230;2023-12-20T01:55:05;43.67;;;27.00;;
10987;SDS011;5547;42.672;23.230;2023-12-20T01:59:05;53.30;;;31.33;;
10987;SDS011;5547;42.672;23.230;2023-12-20T02:03:05;59.47;;;32.80;;
10987;SDS011;5547;42.672;23.230;2023-12-20T02:07:04;60.58;;;33.50;;
10987;SDS011;5547;42.672;23.230;2023-12-20T02:11:04;61.53;;;32.72;;
10987;SDS011;5547;42.672;23.230;2023-12-20T02:15:03;59.88;;;31.88;;
10987;SDS011;5547;42.672;23.230;2023-12-20T02:19:04;58.22;;;32.03;;
10987;SDS011;5547;42.672;23.230;2023-12-20T02:23:05;55.05;;;30.95;;
10987;SDS011;5547;42.672;23.230;2023-12-20T02:27:07;57.25;;;31.63;;
10987;SDS011;5547;42.672;23.230;2023-12-20T02:31:06;59.10;;;31.77;;
10987;SDS011;5547;42.672;23.230;2023-12-20T02:35:06;64.13;;;34.30;;
10987;SDS011;5547;42.672;23.230;2023-12-20T02:39:06;66.68;;;34.80;;
10987;SDS011;5547;42.672;23.230;2023-12-20T02:43:05;59.63;;;32.10;;
10987;SDS011;5547;42.672;23.230;2023-12-20T02:47:04;57.25;;;32.65;;
10987;SDS011;5547;42.672;23.230;2023-12-20T02:51:03;55.50;;;30.55;;
10987;SDS011;5547;42.672;23.230;2023-12-20T02:55:02;55.85;;;29.55;;
10987;SDS011;5547;42.672;23.230;2023-12-20T02:59:01;48.10;;;26.92;;
10987;SDS011;5547;42.672;23.230;2023-12-20T03:03:00;47.30;;;28.20;;
10987;SDS011;5547;42.672;23.230;2023-12-20T03:06:59;53.35;;;29.70;;
10987;SDS011;5547;42.672;23.230;2023-12-20T03:10:59;55.13;;;29.83;;
10987;SDS011;5547;42.672;23.230;2023-12-20T03:14:58;53.28;;;29.35;;
10987;SDS011;5547;42.672;23.230;2023-12-20T03:18:56;56.63;;;31.73;;
10987;SDS011;5547;42.672;23.230;2023-12-20T03:22:55;61.20;;;34.20;;
10987;SDS011;5547;42.672;23.230;2023-12-20T03:26:54;61.00;;;32.35;;
10987;SDS011;5547;42.672;23.230;2023-12-20T03:30:53;63.20;;;33.78;;
10987;SDS011;5547;42.672;23.230;2023-12-20T03:34:52;64.22;;;35.00;;
10987;SDS011;5547;42.672;23.230;2023-12-20T03:38:51;63.67;;;34.60;;
10987;SDS011;5547;42.672;23.230;2023-12-20T03:42:50;64.57;;;34.65;;
10987;SDS011;5547;42.672;23.230;2023-12-20T03:46:49;56.57;;;33.53;;
10987;SDS011;5547;42.672;23.230;2023-12-20T03:50:48;58.28;;;33.65;;
10987;SDS011;5547;42.672;23.230;2023-12-20T03:54:47;53.03;;;30.35;;
10987;SDS011;5547;42.672;23.230;2023-12-20T03:58:46;56.13;;;31.53;;
10987;SDS011;5547;42.672;23.230;2023-12-20T04:02:45;53.53;;;29.90;;
10987;SDS011;5547;42.672;23.230;2023-12-20T04:06:44;53.22;;;30.90;;
10987;SDS011;5547;42.672;23.230;2023-12-20T04:10:43;52.53;;;30.70;;
10987;SDS011;5547;42.672;23.230;2023-12-20T04:14:42;52.28;;;31.27;;
10987;SDS011;5547;42.672;23.230;2023-12-20T04:18:41;56.42;;;33.45;;
10987;SDS011;5547;42.672;23.230;2023-12-20T04:22:40;58.72;;;32.20;;
10987;SDS011;5547;42.672;23.230;2023-12-20T04:26:39;53.40;;;30.30;;
10987;SDS011;5547;42.672;23.230;2023-12-20T04:30:38;53.72;;;30.73;;
10987;SDS011;5547;42.672;23.230;2023-12-20T04:34:37;60.55;;;31.77;;
10987;SDS011;5547;42.672;23.230;2023-12-20T04:38:35;58.67;;;32.78;;
10987;SDS011;5547;42.672;23.230;2023-12-20T04:42:34;63.90;;;32.65;;
10987;SDS011;5547;42.672;23.230;2023-12-20T04:46:33;52.53;;;32.30;;
10987;SDS011;5547;42.672;23.230;2023-12-20T04:50:32;52.80;;;30.17;;
10987;SDS011;5547;42.672;23.230;2023-12-20T04:54:34;53.72;;;29.90;;
10987;SDS011;5547;42.672;23.230;2023-12-20T04:58:33;52.28;;;30.77;;
10987;SDS011;5547;42.672;23.230;2023-12-20T05:02:32;63.70;;;33.08;;
10987;SDS011;5547;42.672;23.230;2023-12-20T05:06:31;64.50;;;35.25;;
10987;SDS011;5547;42.672;23.230;2023-12-20T05:10:30;66.53;;;36.38;;
10987;SDS011;5547;42.672;23.230;2023-12-20T05:14:29;68.70;;;36.72;;
10987;SDS011;5547;42.672;23.230;2023-12-20T05:18:28;67.45;;;36.78;;
10987;SDS011;5547;42.672;23.230;2023-12-20T05:22:27;57.75;;;32.92;;
10987;SDS011;5547;42.672;23.230;2023-12-20T05:26:26;60.67;;;34.15;;
10987;SDS011;5547;42.672;23.230;2023-12-20T05:30:25;58.93;;;32.20;;
10987;SDS011;5547;42.672;23.230;2023-12-20T05:34:24;65.30;;;34.15;;
10987;SDS011;5547;42.672;23.230;2023-12-20T05:38:23;64.97;;;34.63;;
10987;SDS011;5547;42.672;23.230;2023-12-20T05:42:22;75.45;;;40.28;;
10987;SDS011;5547;42.672;23.230;2023-12-20T05:46:21;86.28;;;47.67;;
10987;SDS011;5547;42.672;23.230;2023-12-20T05:50:20;73.30;;;39.03;;
10987;SDS011;5547;42.672;23.230;2023-12-20T05:54:18;69.07;;;37.28;;
10987;SDS011;5547;42.672;23.230;2023-12-20T05:58:17;76.75;;;41.30;;
10987;SDS011;5547;42.672;23.230;2023-12-20T06:02:16;65.60;;;35.83;;
10987;SDS011;5547;42.672;23.230;2023-12-20T06:06:15;66.23;;;36.20;;
10987;SDS011;5547;42.672;23.230;2023-12-20T06:10:15;60.63;;;32.20;;
10987;SDS011;5547;42.672;23.230;2023-12-20T06:14:14;58.93;;;33.60;;
10987;SDS011;5547;42.672;23.230;2023-12-20T06:18:13;71.15;;;38.22;;
10987;SDS011;5547;42.672;23.230;2023-12-20T06:22:12;63.05;;;33.58;;
10987;SDS011;5547;42.672;23.230;2023-12-20T06:26:11;62.30;;;36.40;;
10987;SDS011;5547;42.672;23.230;2023-12-20T06:30:10;66.07;;;38.60;;
10987;SDS011;5547;42.672;23.230;2023-12-20T06:34:09;69.57;;;39.70;;
10987;SDS011;5547;42.672;23.230;2023-12-20T06:38:11;74.78;;;43.05;;
10987;SDS011;5547;42.672;23.230;2023-12-20T06:42:12;76.45;;;49.42;;
10987;SDS011;5547;42.672;23.230;2023-12-20T06:46:12;55.72;;;36.88;;
10987;SDS011;5547;42.672;23.230;2023-12-20T06:50:11;61.72;;;37.97;;
10987;SDS011;5547;42.672;23.230;2023-12-20T06:54:14;62.17;;;41.45;;
10987;SDS011;5547;42.672;23.230;2023-12-20T06:58:13;58.93;;;39.10;;
10987;SDS011;5547;42.672;23.230;2023-12-20T07:02:12;61.90;;;41.40;;
10987;SDS011;5547;42.672;23.230;2023-12-20T07:06:11;61.60;;;42.63;;
10987;SDS011;5547;42.672;23.230;2023-12-20T07:10:10;72.03;;;48.13;;
10987;SDS011;5547;42.672;23.230;2023-12-20T07:14:08;73.80;;;47.93;;
10987;SDS011;5547;42.672;23.230;2023-12-20T07:18:07;65.60;;;45.65;;
10987;SDS011;5547;42.672;23.230;2023-12-20T07:22:06;64.38;;;45.38;;
10987;SDS011;5547;42.672;23.230;2023-12-20T07:26:05;59.47;;;43.20;;
10987;SDS011;5547;42.672;23.230;2023-12-20T07:30:04;63.20;;;42.88;;
10987;SDS011;5547;42.672;23.230;2023-12-20T07:34:03;60.30;;;40.72;;
10987;SDS011;5547;42.672;23.230;2023-12-20T07:38:03;77.40;;;50.03;;
10987;SDS011;5547;42.672;23.230;2023-12-20T07:42:03;87.40;;;58.72;;
10987;SDS011;5547;42.672;23.230;2023-12-20T07:46:08;94.00;;;61.03;;
10987;SDS011;5547;42.672;23.230;2023-12-20T07:50:07;116.30;;;74.97;;
10987;SDS011;5547;42.672;23.230;2023-12-20T07:54:08;137.25;;;88.28;;
10987;SDS011;5547;42.672;23.230;2023-12-20T07:58:07;139.07;;;89.20;;
10987;SDS011;5547;42.672;23.230;2023-12-20T08:02:06;135.25;;;83.63;;
10987;SDS011;5547;42.672;23.230;2023-12-20T08:06:05;148.65;;;94.85;;
10987;SDS011;5547;42.672;23.230;2023-12-20T08:10:04;151.60;;;94.43;;
10987;SDS011;5547;42.672;23.230;2023-12-20T08:14:03;141.88;;;90.63;;
10987;SDS011;5547;42.672;23.230;2023-12-20T08:18:02;136.23;;;87.15;;
10987;SDS011;5547;42.672;23.230;2023-12-20T08:22:01;141.45;;;88.05;;
10987;SDS011;5547;42.672;23.230;2023-12-20T08:26:07;128.02;;;80.68;;
10987;SDS011;5547;42.672;23.230;2023-12-20T08:30:07;119.10;;;75.75;;
10987;SDS011;5547;42.672;23.230;2023-12-20T08:34:13;117.22;;;75.28;;
10987;SDS011;5547;42.672;23.230;2023-12-20T08:38:12;107.17;;;65.70;;
10987;SDS011;5547;42.672;23.230;2023-12-20T08:42:11;104.57;;;66.60;;
10987;SDS011;5547;42.672;23.230;2023-12-20T08:46:10;101.10;;;61.95;;
10987;SDS011;5547;42.672;23.230;2023-12-20T08:50:13;98.13;;;60.42;;
10987;SDS011;5547;42.672;23.230;2023-12-20T08:54:13;102.60;;;62.70;;
10987;SDS011;5547;42.672;23.230;2023-12-20T08:58:13;100.53;;;62.80;;
10987;SDS011;5547;42.672;23.230;2023-12-20T09:02:12;97.70;;;62.23;;
10987;SDS011;5547;42.672;23.230;2023-12-20T09:06:11;110.65;;;68.10;;
10987;SDS011;5547;42.672;23.230;2023-12-20T09:10:23;109.07;;;65.18;;
10987;SDS011;5547;42.672;23.230;2023-12-20T09:14:22;111.22;;;64.78;;
10987;SDS011;5547;42.672;23.230;2023-12-20T09:18:21;111.43;;;70.13;;
10987;SDS011;5547;42.672;23.230;2023-12-20T09:22:20;119.45;;;71.20;;
10987;SDS011;5547;42.672;23.230;2023-12-20T09:26:19;118.63;;;74.70;;
10987;SDS011;5547;42.672;23.230;2023-12-20T09:30:19;130.37;;;81.27;;
10987;SDS011;5547;42.672;23.230;2023-12-20T09:34:18;133.05;;;81.30;;
10987;SDS011;5547;42.672;23.230;2023-12-20T09:38:17;135.25;;;80.70;;
10987;SDS011;5547;42.672;23.230;2023-12-20T09:42:29;132.02;;;78.05;;
10987;SDS011;5547;42.672;23.230;2023-12-20T09:46:31;135.48;;;84.10;;
10987;SDS011;5547;42.672;23.230;2023-12-20T09:50:32;125.67;;;75.60;;
10987;SDS011;5547;42.672;23.230;2023-12-20T09:54:31;122.77;;;76.67;;
10987;SDS011;5547;42.672;23.230;2023-12-20T09:58:30;132.47;;;83.83;;
10987;SDS011;5547;42.672;23.230;2023-12-20T10:02:29;138.25;;;84.13;;
10987;SDS011;5547;42.672;23.230;2023-12-20T10:06:31;130.25;;;82.97;;
10987;SDS011;5547;42.672;23.230;2023-12-20T10:10:30;145.63;;;88.43;;
10987;SDS011;5547;42.672;23.230;2023-12-20T10:14:29;151.20;;;89.25;;
10987;SDS011;5547;42.672;23.230;2023-12-20T10:18:28;137.23;;;79.80;;
10987;SDS011;5547;42.672;23.230;2023-12-20T10:22:27;131.25;;;79.38;;
10987;SDS011;5547;42.672;23.230;2023-12-20T10:26:26;126.22;;;77.95;;
10987;SDS011;5547;42.672;23.230;2023-12-20T10:30:26;131.90;;;76.18;;
10987;SDS011;5547;42.672;23.230;2023-12-20T10:34:27;122.85;;;74.90;;
10987;SDS011;5547;42.672;23.230;2023-12-20T10:38:26;126.93;;;74.88;;
10987;SDS011;5547;42.672;23.230;2023-12-20T10:42:26;121.82;;;74.60;;
10987;SDS011;5547;42.672;23.230;2023-12-20T10:46:26;119.90;;;75.13;;
10987;SDS011;5547;42.672;23.230;2023-12-20T10:50:27;115.63;;;68.23;;
10987;SDS011;5547;42.672;23.230;2023-12-20T10:54:26;129.43;;;76.00;;
10987;SDS011;5547;42.672;23.230;2023-12-20T10:58:25;130.55;;;79.50;;
10987;SDS011;5547;42.672;23.230;2023-12-20T11:02:27;123.53;;;75.97;;
10987;SDS011;5547;42.672;23.230;2023-12-20T11:10:41;119.13;;;75.10;;
10987;SDS011;5547;42.672;23.230;2023-12-20T11:14:48;105.78;;;69.00;;
10987;SDS011;5547;42.672;23.230;2023-12-20T11:18:49;119.05;;;71.70;;
10987;SDS011;5547;42.672;23.230;2023-12-20T11:22:58;122.82;;;74.70;;
10987;SDS011;5547;42.672;23.230;2023-12-20T11:26:57;114.72;;;69.53;;
10987;SDS011;5547;42.672;23.230;2023-12-20T11:31:10;97.60;;;62.20;;
10987;SDS011;5547;42.672;23.230;2023-12-20T11:35:32;96.18;;;61.20;;
10987;SDS011;5547;42.672;23.230;2023-12-20T11:39:32;114.63;;;73.33;;
10987;SDS011;5547;42.672;23.230;2023-12-20T11:43:36;122.10;;;74.95;;
10987;SDS011;5547;42.672;23.230;2023-12-20T11:47:36;116.15;;;71.65;;
10987;SDS011;5547;42.672;23.230;2023-12-20T11:51:40;122.05;;;79.97;;
10987;SDS011;5547;42.672;23.230;2023-12-20T11:55:39;129.60;;;80.43;;
10987;SDS011;5547;42.672;23.230;2023-12-20T11:59:38;133.57;;;85.53;;
10987;SDS011;5547;42.672;23.230;2023-12-20T12:03:38;134.02;;;83.53;;
10987;SDS011;5547;42.672;23.230;2023-12-20T12:07:37;137.73;;;85.68;;
10987;SDS011;5547;42.672;23.230;2023-12-20T12:11:37;141.55;;;84.82;;
10987;SDS011;5547;42.672;23.230;2023-12-20T12:15:37;135.50;;;85.32;;
10987;SDS011;5547;42.672;23.230;2023-12-20T12:19:35;134.97;;;84.67;;
10987;SDS011;5547;42.672;23.230;2023-12-20T12:23:34;139.40;;;85.75;;
10987;SDS011;5547;42.672;23.230;2023-12-20T12:27:33;137.68;;;87.20;;
10987;SDS011;5547;42.672;23.230;2023-12-20T12:31:34;145.27;;;89.97;;
10987;SDS011;5547;42.672;23.230;2023-12-20T12:35:33;137.43;;;81.97;;
10987;SDS011;5547;42.672;23.230;2023-12-20T12:39:32;149.80;;;88.28;;
10987;SDS011;5547;42.672;23.230;2023-12-20T12:43:34;145.98;;;84.35;;
10987;SDS011;5547;42.672;23.230;2023-12-20T12:47:34;157.70;;;90.47;;
10987;SDS011;5547;42.672;23.230;2023-12-20T12:51:33;157.30;;;92.40;;
10987;SDS011;5547;42.672;23.230;2023-12-20T12:55:34;155.18;;;88.63;;
10987;SDS011;5547;42.672;23.230;2023-12-20T12:59:32;160.73;;;91.65;;
10987;SDS011;5547;42.672;23.230;2023-12-20T13:03:31;156.50;;;92.63;;
10987;SDS011;5547;42.672;23.230;2023-12-20T13:07:31;160.00;;;95.53;;
10987;SDS011;5547;42.672;23.230;2023-12-20T13:11:30;157.80;;;90.87;;
10987;SDS011;5547;42.672;23.230;2023-12-20T13:15:29;154.65;;;91.93;;
10987;SDS011;5547;42.672;23.230;2023-12-20T13:19:31;156.60;;;94.38;;
10987;SDS011;5547;42.672;23.230;2023-12-20T13:23:30;154.40;;;93.93;;
10987;SDS011;5547;42.672;23.230;2023-12-20T13:27:29;151.82;;;87.70;;
10987;SDS011;5547;42.672;23.230;2023-12-20T13:31:28;142.32;;;84.38;;
10987;SDS011;5547;42.672;23.230;2023-12-20T13:35:27;146.50;;;83.30;;
10987;SDS011;5547;42.672;23.230;2023-12-20T13:39:26;147.43;;;85.32;;
10987;SDS011;5547;42.672;23.230;2023-12-20T13:43:25;149.20;;;83.18;;
10987;SDS011;5547;42.672;23.230;2023-12-20T13:47:24;143.73;;;83.32;;
10987;SDS011;5547;42.672;23.230;2023-12-20T13:51:23;150.25;;;82.95;;
10987;SDS011;5547;42.672;23.230;2023-12-20T13:55:22;148.07;;;82.22;;
10987;SDS011;5547;42.672;23.230;2023-12-20T13:59:22;152.10;;;86.68;;
10987;SDS011;5547;42.672;23.230;2023-12-20T14:03:21;156.60;;;85.90;;
10987;SDS011;5547;42.672;23.230;2023-12-20T14:07:21;158.48;;;86.38;;
10987;SDS011;5547;42.672;23.230;2023-12-20T14:11:20;157.73;;;87.13;;
10987;SDS011;5547;42.672;23.230;2023-12-20T14:15:20;169.55;;;94.95;;
10987;SDS011;5547;42.672;23.230;2023-12-20T14:19:19;228.80;;;137.82;;
10987;SDS011;5547;42.672;23.230;2023-12-20T14:23:18;166.82;;;96.28;;
10987;SDS011;5547;42.672;23.230;2023-12-20T14:27:17;162.30;;;91.05;;
10987;SDS011;5547;42.672;23.230;2023-12-20T14:31:16;158.90;;;91.88;;
10987;SDS011;5547;42.672;23.230;2023-12-20T14:35:16;164.45;;;94.13;;
10987;SDS011;5547;42.672;23.230;2023-12-20T14:39:14;168.63;;;98.35;;
10987;SDS011;5547;42.672;23.230;2023-12-20T14:43:16;170.33;;;95.43;;
10987;SDS011;5547;42.672;23.230;2023-12-20T14:47:16;186.07;;;106.73;;
10987;SDS011;5547;42.672;23.230;2023-12-20T14:51:15;196.95;;;115.28;;
10987;SDS011;5547;42.672;23.230;2023-12-20T14:55:14;191.38;;;110.72;;
10987;SDS011;5547;42.672;23.230;2023-12-20T14:59:15;205.98;;;122.55;;
10987;SDS011;5547;42.672;23.230;2023-12-20T15:03:16;212.32;;;114.78;;
10987;SDS011;5547;42.672;23.230;2023-12-20T15:07:15;203.65;;;112.78;;
10987;SDS011;5547;42.672;23.230;2023-12-20T15:11:14;190.77;;;110.45;;
10987;SDS011;5547;42.672;23.230;2023-12-20T15:15:13;200.95;;;106.45;;
10987;SDS011;5547;42.672;23.230;2023-12-20T15:19:12;166.15;;;90.45;;
10987;SDS011;5547;42.672;23.230;2023-12-20T15:23:11;168.40;;;91.53;;
10987;SDS011;5547;42.672;23.230;2023-12-20T15:27:19;144.75;;;83.47;;
10987;SDS011;5547;42.672;23.230;2023-12-20T15:31:18;160.05;;;90.05;;
10987;SDS011;5547;42.672;23.230;2023-12-20T15:35:18;167.30;;;90.70;;
10987;SDS011;5547;42.672;23.230;2023-12-20T15:39:18;165.77;;;93.13;;
10987;SDS011;5547;42.672;23.230;2023-12-20T15:43:16;162.90;;;88.95;;
10987;SDS011;5547;42.672;23.230;2023-12-20T15:47:15;242.80;;;114.32;;
10987;SDS011;5547;42.672;23.230;2023-12-20T15:51:20;133.07;;;71.72;;
10987;SDS011;5547;42.672;23.230;2023-12-20T15:55:19;134.83;;;73.93;;
10987;SDS011;5547;42.672;23.230;2023-12-20T15:59:18;114.63;;;66.07;;
10987;SDS011;5547;42.672;23.230;2023-12-20T16:03:17;127.50;;;70.65;;
10987;SDS011;5547;42.672;23.230;2023-12-20T16:07:16;120.45;;;65.25;;
10987;SDS011;5547;42.672;23.230;2023-12-20T16:11:15;115.95;;;66.20;;
10987;SDS011;5547;42.672;23.230;2023-12-20T16:15:14;99.47;;;56.10;;
10987;SDS011;5547;42.672;23.230;2023-12-20T16:19:13;106.85;;;59.30;;
10987;SDS011;5547;42.672;23.230;2023-12-20T16:23:13;95.85;;;52.08;;
10987;SDS011;5547;42.672;23.230;2023-12-20T16:27:12;126.45;;;65.70;;
10987;SDS011;5547;42.672;23.230;2023-12-20T16:31:11;96.97;;;52.72;;
10987;SDS011;5547;42.672;23.230;2023-12-20T16:35:10;92.78;;;49.10;;
10987;SDS011;5547;42.672;23.230;2023-12-20T16:39:09;85.20;;;50.30;;
10987;SDS011;5547;42.672;23.230;2023-12-20T16:43:08;146.65;;;76.20;;
10987;SDS011;5547;42.672;23.230;2023-12-20T16:47:07;105.55;;;57.45;;
10987;SDS011;5547;42.672;23.230;2023-12-20T16:51:06;108.60;;;59.78;;
10987;SDS011;5547;42.672;23.230;2023-12-20T16:55:07;101.25;;;57.22;;
10987;SDS011;5547;42.672;23.230;2023-12-20T16:59:06;92.50;;;52.15;;
10987;SDS011;5547;42.672;23.230;2023-12-20T17:03:07;76.35;;;43.25;;
10987;SDS011;5547;42.672;23.230;2023-12-20T17:07:05;75.13;;;43.22;;
10987;SDS011;5547;42.672;23.230;2023-12-20T17:11:04;76.17;;;42.30;;
10987;SDS011;5547;42.672;23.230;2023-12-20T17:15:04;72.97;;;41.47;;
10987;SDS011;5547;42.672;23.230;2023-12-20T17:19:03;70.63;;;40.08;;
10987;SDS011;5547;42.672;23.230;2023-12-20T17:23:03;68.38;;;39.20;;
10987;SDS011;5547;42.672;23.230;2023-12-20T17:27:03;60.08;;;36.97;;
10987;SDS011;5547;42.672;23.230;2023-12-20T17:31:02;55.15;;;31.88;;
10987;SDS011;5547;42.672;23.230;2023-12-20T17:35:01;44.45;;;25.52;;
10987;SDS011;5547;42.672;23.230;2023-12-20T17:39:00;38.53;;;23.33;;
10987;SDS011;5547;42.672;23.230;2023-12-20T17:42:59;40.67;;;25.15;;
10987;SDS011;5547;42.672;23.230;2023-12-20T17:46:57;49.00;;;28.45;;
10987;SDS011;5547;42.672;23.230;2023-12-20T17:50:57;30.52;;;19.75;;
10987;SDS011;5547;42.672;23.230;2023-12-20T17:54:56;32.08;;;21.58;;
10987;SDS011;5547;42.672;23.230;2023-12-20T17:58:55;25.85;;;17.00;;
10987;SDS011;5547;42.672;23.230;2023-12-20T18:02:54;25.43;;;16.90;;
10987;SDS011;5547;42.672;23.230;2023-12-20T18:06:53;26.77;;;18.20;;
10987;SDS011;5547;42.672;23.230;2023-12-20T18:10:52;25.10;;;16.10;;
10987;SDS011;5547;42.672;23.230;2023-12-20T18:14:51;23.95;;;16.30;;
10987;SDS011;5547;42.672;23.230;2023-12-20T18:18:50;27.70;;;20.20;;
10987;SDS011;5547;42.672;23.230;2023-12-20T18:22:50;57.15;;;37.70;;
10987;SDS011;5547;42.672;23.230;2023-12-20T18:26:49;55.20;;;37.00;;
10987;SDS011;5547;42.672;23.230;2023-12-20T18:30:48;78.63;;;48.72;;
10987;SDS011;5547;42.672;23.230;2023-12-20T18:34:46;130.38;;;77.88;;
10987;SDS011;5547;42.672;23.230;2023-12-20T18:38:45;211.40;;;114.43;;
10987;SDS011;5547;42.672;23.230;2023-12-20T18:42:46;219.70;;;126.25;;
10987;SDS011;5547;42.672;23.230;2023-12-20T18:46:45;258.42;;;137.43;;
10987;SDS011;5547;42.672;23.230;2023-12-20T18:50:45;247.82;;;135.85;;
10987;SDS011;5547;42.672;23.230;2023-12-20T18:54:44;250.53;;;133.63;;
10987;SDS011;5547;42.672;23.230;2023-12-20T18:58:43;256.30;;;129.85;;
10987;SDS011;5547;42.672;23.230;2023-12-20T19:02:42;244.32;;;126.90;;
10987;SDS011;5547;42.672;23.230;2023-12-20T19:06:41;247.95;;;130.02;;
10987;SDS011;5547;42.672;23.230;2023-12-20T19:10:40;240.73;;;125.75;;
10987;SDS011;5547;42.672;23.230;2023-12-20T19:14:39;219.02;;;111.75;;
10987;SDS011;5547;42.672;23.230;2023-12-20T19:18:38;166.82;;;87.68;;
10987;SDS011;5547;42.672;23.230;2023-12-20T19:22:37;138.50;;;73.43;;
10987;SDS011;5547;42.672;23.230;2023-12-20T19:26:37;117.47;;;61.42;;
10987;SDS011;5547;42.672;23.230;2023-12-20T19:30:36;106.18;;;55.38;;
10987;SDS011;5547;42.672;23.230;2023-12-20T19:34:35;94.88;;;52.35;;
10987;SDS011;5547;42.672;23.230;2023-12-20T19:38:35;86.70;;;45.40;;
10987;SDS011;5547;42.672;23.230;2023-12-20T19:42:35;81.13;;;45.33;;
10987;SDS011;5547;42.672;23.230;2023-12-20T19:46:34;86.57;;;49.70;;
10987;SDS011;5547;42.672;23.230;2023-12-20T19:50:33;75.05;;;44.47;;
10987;SDS011;5547;42.672;23.230;2023-12-20T19:54:32;78.78;;;45.17;;
10987;SDS011;5547;42.672;23.230;2023-12-20T19:58:32;65.78;;;38.80;;
10987;SDS011;5547;42.672;23.230;2023-12-20T20:02:31;63.47;;;37.77;;
10987;SDS011;5547;42.672;23.230;2023-12-20T20:06:30;65.72;;;35.85;;
10987;SDS011;5547;42.672;23.230;2023-12-20T20:10:29;54.28;;;31.00;;
10987;SDS011;5547;42.672;23.230;2023-12-20T20:14:27;55.15;;;33.13;;
10987;SDS011;5547;42.672;23.230;2023-12-20T20:18:26;50.50;;;29.83;;
10987;SDS011;5547;42.672;23.230;2023-12-20T20:22:26;63.03;;;38.30;;
10987;SDS011;5547;42.672;23.230;2023-12-20T20:26:25;83.33;;;51.90;;
10987;SDS011;5547;42.672;23.230;2023-12-20T20:30:23;65.72;;;38.67;;
10987;SDS011;5547;42.672;23.230;2023-12-20T20:34:23;72.43;;;43.10;;
10987;SDS011;5547;42.672;23.230;2023-12-20T20:38:22;71.40;;;41.97;;
10987;SDS011;5547;42.672;23.230;2023-12-20T20:42:21;79.82;;;44.40;;
10987;SDS011;5547;42.672;23.230;2023-12-20T20:46:20;80.47;;;44.50;;
10987;SDS011;5547;42.672;23.230;2023-12-20T20:50:19;93.55;;;53.15;;
10987;SDS011;5547;42.672;23.230;2023-12-20T20:54:19;84.93;;;49.93;;
10987;SDS011;5547;42.672;23.230;2023-12-20T20:58:18;85.57;;;51.30;;
10987;SDS011;5547;42.672;23.230;2023-12-20T21:02:17;94.43;;;54.42;;
10987;SDS011;5547;42.672;23.230;2023-12-20T21:06:16;101.00;;;55.65;;
10987;SDS011;5547;42.672;23.230;2023-12-20T21:10:15;101.22;;;58.30;;
10987;SDS011;5547;42.672;23.230;2023-12-20T21:14:18;119.00;;;68.22;;
10987;SDS011;5547;42.672;23.230;2023-12-20T21:18:17;114.47;;;63.70;;
10987;SDS011;5547;42.672;23.230;2023-12-20T21:22:16;114.15;;;63.72;;
10987;SDS011;5547;42.672;23.230;2023-12-20T21:26:16;116.30;;;67.33;;
10987;SDS011;5547;42.672;23.230;2023-12-20T21:30:15;144.55;;;80.85;;
10987;SDS011;5547;42.672;23.230;2023-12-20T21:34:14;175.05;;;97.63;;
10987;SDS011;5547;42.672;23.230;2023-12-20T21:38:16;199.85;;;109.93;;
10987;SDS011;5547;42.672;23.230;2023-12-20T21:42:15;210.55;;;117.78;;
10987;SDS011;5547;42.672;23.230;2023-12-20T21:46:14;191.23;;;98.73;;
10987;SDS011;5547;42.672;23.230;2023-12-20T21:50:13;178.48;;;94.55;;
10987;SDS011;5547;42.672;23.230;2023-12-20T21:54:12;114.07;;;60.50;;
10987;SDS011;5547;42.672;23.230;2023-12-20T21:58:11;20.42;;;11.05;;
10987;SDS011;5547;42.672;23.230;2023-12-20T22:02:10;26.02;;;15.02;;
10987;SDS011;5547;42.672;23.230;2023-12-20T22:06:09;5.32;;;3.38;;
10987;SDS011;5547;42.672;23.230;2023-12-20T22:10:08;5.72;;;3.53;;
10987;SDS011;5547;42.672;23.230;2023-12-20T22:14:08;4.82;;;2.92;;
10987;SDS011;5547;42.672;23.230;2023-12-20T22:18:07;4.40;;;2.80;;
10987;SDS011;5547;42.672;23.230;2023-12-20T22:22:06;114.90;;;69.75;;
10987;SDS011;5547;42.672;23.230;2023-12-20T22:26:05;108.67;;;64.23;;
10987;SDS011;5547;42.672;23.230;2023-12-20T22:30:04;49.45;;;31.23;;
10987;SDS011;5547;42.672;23.230;2023-12-20T22:34:04;8.48;;;4.68;;
10987;SDS011;5547;42.672;23.230;2023-12-20T22:38:04;5.07;;;2.92;;
10987;SDS011;5547;42.672;23.230;2023-12-20T22:42:03;5.33;;;2.60;;
10987;SDS011;5547;42.672;23.230;2023-12-20T22:46:02;5.35;;;2.70;;
10987;SDS011;5547;42.672;23.230;2023-12-20T22:50:01;4.60;;;2.67;;
10987;SDS011;5547;42.672;23.230;2023-12-20T22:54:00;4.10;;;2.65;;
10987;SDS011;5547;42.672;23.230;2023-12-20T22:57:59;5.00;;;2.80;;
10987;SDS011;5547;42.672;23.230;2023-12-20T23:01:58;3.80;;;2.20;;
10987;SDS011;5547;42.672;23.230;2023-12-20T23:05:57;23.05;;;13.20;;
10987;SDS011;5547;42.672;23.230;2023-12-20T23:09:56;18.90;;;11.93;;
10987;SDS011;5547;42.672;23.230;2023-12-20T23:13:55;12.27;;;7.20;;
10987;SDS011;5547;42.672;23.230;2023-12-20T23:17:54;6.97;;;4.50;;